Time;durP1;ratioP1;P1;durP2;ratioP2;P2;SDS_P1;SDS_P2;PMS_P1;PMS_P2;Temp;Humidity;BMP_temperature;BMP_pressure;BME280_temperature;BME280_humidity;BME280_pressure;Samples;Min_cycle;Max_cycle;Signal;HPM_P1;HPM_P2
2023/12/29 00:01:54;;;;;;;;;;;9.10;100.00;;;;;;6265136;22;19993;-73
2023/12/29 00:04:21;;;;;;;;;;;9.10;100.00;;;;;;6264438;22;20283;-73
2023/12/29 00:06:48;;;;;;;;;;;9.10;100.00;;;;;;6267418;22;19923;-72
2023/12/29 00:09:25;;;;;;;;;;;9.00;100.00;;;;;;6266660;22;20235;-72
2023/12/29 00:11:54;;;;;;;;;;;9.10;100.00;;;;;;6265672;22;19919;-73
2023/12/29 00:14:20;;;;;;;;;;;9.10;100.00;;;;;;6266465;22;19918;-72
2023/12/29 00:16:47;;;;;;;;;;;9.10;100.00;;;;;;6265443;22;19919;-72
2023/12/29 00:19:14;;;;;;;;;;;9.00;100.00;;;;;;6266987;22;19919;-72
2023/12/29 00:21:41;;;;;;;;;;;9.10;100.00;;;;;;6267173;22;19919;-72
2023/12/29 00:24:08;;;;;;;;;;;9.00;100.00;;;;;;6267549;22;19943;-72
2023/12/29 00:26:36;;;;;;;;;;;9.00;100.00;;;;;;6267654;22;20359;-72
2023/12/29 00:29:03;;;;;;;;;;;9.00;100.00;;;;;;6267113;22;19950;-68
2023/12/29 00:31:29;;;;;;;;;;;9.00;100.00;;;;;;6267182;22;19919;-67
2023/12/29 00:33:56;;;;;;;;;;;9.00;100.00;;;;;;6265607;22;19923;-67
2023/12/29 00:36:24;;;;;;;;;;;9.00;100.00;;;;;;6265613;22;19919;-68
2023/12/29 00:38:50;;;;;;;;;;;9.00;100.00;;;;;;6240226;22;19923;-67
2023/12/29 00:41:17;;;;;;;;;;;9.00;100.00;;;;;;6267502;22;20607;-67
2023/12/29 00:43:44;;;;;;;;;;;9.00;100.00;;;;;;6267000;22;20348;-67
2023/12/29 00:46:13;;;;;;;;;;;9.00;100.00;;;;;;6266815;22;19949;-67
2023/12/29 00:48:40;;;;;;;;;;;9.00;100.00;;;;;;6266906;22;19997;-67
2023/12/29 00:51:07;;;;;;;;;;;9.00;100.00;;;;;;6267502;22;19923;-67
2023/12/29 00:53:34;;;;;;;;;;;9.00;100.00;;;;;;6267330;22;19919;-68
2023/12/29 00:56:01;;;;;;;;;;;9.00;100.00;;;;;;6267365;22;19988;-67
2023/12/29 00:58:28;;;;;;;;;;;9.10;100.00;;;;;;6266335;22;19919;-68
2023/12/29 01:00:55;;;;;;;;;;;9.10;100.00;;;;;;6267119;22;19915;-67
2023/12/29 01:03:22;;;;;;;;;;;9.10;100.00;;;;;;6240636;22;19919;-67
2023/12/29 01:05:52;;;;;;;;;;;9.10;100.00;;;;;;6267244;22;19947;-68
2023/12/29 01:08:19;;;;;;;;;;;9.10;100.00;;;;;;6266615;22;19919;-67
2023/12/29 01:10:45;;;;;;;;;;;9.10;100.00;;;;;;6267682;22;19923;-67
2023/12/29 01:13:12;;;;;;;;;;;9.10;100.00;;;;;;6267252;22;19919;-67
2023/12/29 01:15:40;;;;;;;;;;;9.10;100.00;;;;;;6264549;22;20281;-68
2023/12/29 01:18:07;;;;;;;;;;;9.00;100.00;;;;;;6266827;22;19926;-67
2023/12/29 01:20:34;;;;;;;;;;;9.00;100.00;;;;;;6266839;22;19976;-67
2023/12/29 01:23:01;;;;;;;;;;;8.90;100.00;;;;;;6266222;22;19938;-67
2023/12/29 01:25:27;;;;;;;;;;;8.80;100.00;;;;;;6267273;22;20004;-68
2023/12/29 01:27:54;;;;;;;;;;;8.70;100.00;;;;;;6266864;22;19915;-68
2023/12/29 01:30:21;;;;;;;;;;;8.50;100.00;;;;;;6267401;22;20324;-68
2023/12/29 01:32:48;;;;;;;;;;;8.30;100.00;;;;;;6266743;22;20244;-68
2023/12/29 01:35:15;;;;;;;;;;;8.10;100.00;;;;;;6267185;22;20587;-67
2023/12/29 01:37:44;;;;;;;;;;;8.00;100.00;;;;;;6265570;22;19919;-67
2023/12/29 01:40:11;;;;;;;;;;;7.90;100.00;;;;;;6266153;22;19973;-67
2023/12/29 01:42:38;;;;;;;;;;;7.80;100.00;;;;;;6266533;22;19919;-67
2023/12/29 01:45:05;;;;;;;;;;;7.70;100.00;;;;;;6266619;22;19922;-67
2023/12/29 01:47:32;;;;;;;;;;;7.70;100.00;;;;;;6266757;22;19926;-67
2023/12/29 01:49:59;;;;;;;;;;;7.80;100.00;;;;;;6267014;22;19918;-67
2023/12/29 01:52:26;;;;;;;;;;;7.80;100.00;;;;;;6240346;22;19926;-67
2023/12/29 01:54:53;;;;;;;;;;;7.70;100.00;;;;;;6266864;22;19965;-67
2023/12/29 01:57:20;;;;;;;;;;;7.70;100.00;;;;;;6266692;22;19919;-67
2023/12/29 01:59:48;;;;;;;;;;;7.80;100.00;;;;;;6267324;22;20196;-67
2023/12/29 02:02:16;;;;;;;;;;;7.80;100.00;;;;;;6266362;22;19925;-67
2023/12/29 02:04:43;;;;;;;;;;;7.80;100.00;;;;;;6266128;22;19919;-67
2023/12/29 02:07:10;;;;;;;;;;;7.90;100.00;;;;;;6266263;22;19923;-67
2023/12/29 02:09:37;;;;;;;;;;;7.90;100.00;;;;;;6266363;22;19919;-67
2023/12/29 02:12:04;;;;;;;;;;;7.90;100.00;;;;;;6266229;22;19969;-67
2023/12/29 02:14:31;;;;;;;;;;;8.00;100.00;;;;;;6267104;22;19926;-67
2023/12/29 02:17:06;;;;;;;;;;;8.00;100.00;;;;;;6264898;22;19919;-67
2023/12/29 02:19:49;;;;;;;;;;;8.00;100.00;;;;;;6266202;22;19926;-67
2023/12/29 02:22:16;;;;;;;;;;;8.00;100.00;;;;;;6266382;22;19919;-67
2023/12/29 02:24:44;;;;;;;;;;;8.00;100.00;;;;;;6266727;22;19951;-68
2023/12/29 02:27:29;;;;;;;;;;;8.10;100.00;;;;;;6266398;22;19973;-67
2023/12/29 02:30:05;;;;;;;;;;;8.10;100.00;;;;;;6266925;22;19919;-67
2023/12/29 02:32:33;;;;;;;;;;;8.10;100.00;;;;;;6266012;22;20514;-67
2023/12/29 02:35:00;;;;;;;;;;;8.20;100.00;;;;;;6265722;22;19997;-67
2023/12/29 02:37:29;;;;;;;;;;;8.20;100.00;;;;;;6266407;22;20610;-67
2023/12/29 02:39:56;;;;;;;;;;;8.30;100.00;;;;;;6266146;22;20324;-67
2023/12/29 02:42:23;;;;;;;;;;;8.30;100.00;;;;;;6239810;22;19919;-67
2023/12/29 02:44:50;;;;;;;;;;;8.30;100.00;;;;;;6265521;22;19964;-68
2023/12/29 02:47:19;;;;;;;;;;;8.40;100.00;;;;;;6264863;22;19937;-67
2023/12/29 02:49:46;;;;;;;;;;;8.40;100.00;;;;;;6239668;22;19918;-67
2023/12/29 02:52:13;;;;;;;;;;;8.50;100.00;;;;;;6264325;22;19923;-67
2023/12/29 02:54:39;;;;;;;;;;;8.40;100.00;;;;;;6264371;22;20486;-67
2023/12/29 02:57:06;;;;;;;;;;;8.50;100.00;;;;;;6264485;22;20329;-67
2023/12/29 02:59:33;;;;;;;;;;;8.50;100.00;;;;;;6264609;22;19949;-67
2023/12/29 03:02:00;;;;;;;;;;;8.50;100.00;;;;;;6266931;22;19984;-67
2023/12/29 03:04:27;;;;;;;;;;;8.50;100.00;;;;;;6266377;22;20386;-67
2023/12/29 03:06:54;;;;;;;;;;;8.50;100.00;;;;;;6264896;22;20499;-67
2023/12/29 03:09:21;;;;;;;;;;;8.50;100.00;;;;;;6266308;22;20313;-68
2023/12/29 03:11:47;;;;;;;;;;;8.60;100.00;;;;;;6267389;22;20210;-67
2023/12/29 03:14:15;;;;;;;;;;;8.60;100.00;;;;;;6265639;22;19929;-67
2023/12/29 03:16:41;;;;;;;;;;;8.60;100.00;;;;;;6265497;22;19973;-67
2023/12/29 03:19:08;;;;;;;;;;;8.60;100.00;;;;;;6265996;22;19927;-68
2023/12/29 03:21:35;;;;;;;;;;;8.60;100.00;;;;;;6266632;22;19981;-67
2023/12/29 03:24:02;;;;;;;;;;;8.60;100.00;;;;;;6266948;22;20625;-67
2023/12/29 03:26:29;;;;;;;;;;;8.50;100.00;;;;;;6267681;22;20338;-67
2023/12/29 03:28:55;;;;;;;;;;;8.50;100.00;;;;;;6266349;22;19950;-68
2023/12/29 03:31:22;;;;;;;;;;;8.60;100.00;;;;;;6265611;22;20328;-68
2023/12/29 03:33:49;;;;;;;;;;;8.70;100.00;;;;;;6267695;22;19919;-67
2023/12/29 03:36:16;;;;;;;;;;;8.70;100.00;;;;;;6267823;22;19926;-67
2023/12/29 03:38:42;;;;;;;;;;;8.80;100.00;;;;;;6268082;22;19927;-67
2023/12/29 03:41:10;;;;;;;;;;;8.80;100.00;;;;;;6267497;22;19949;-68
2023/12/29 03:43:37;;;;;;;;;;;8.80;100.00;;;;;;6267829;22;19926;-67
2023/12/29 03:46:14;;;;;;;;;;;8.80;100.00;;;;;;6267238;22;20708;-67
2023/12/29 03:48:41;;;;;;;;;;;8.90;100.00;;;;;;6267822;22;20006;-67
2023/12/29 03:51:08;;;;;;;;;;;8.90;100.00;;;;;;6268115;22;19919;-68
2023/12/29 03:53:35;;;;;;;;;;;8.90;100.00;;;;;;6267968;22;20268;-68
2023/12/29 03:56:08;;;;;;;;;;;8.90;100.00;;;;;;6267194;22;19914;-67
2023/12/29 03:58:35;;;;;;;;;;;8.90;100.00;;;;;;6268382;22;19927;-68
2023/12/29 04:01:02;;;;;;;;;;;8.90;100.00;;;;;;6240223;22;20049;-68
2023/12/29 04:03:29;;;;;;;;;;;8.90;100.00;;;;;;6266620;22;19923;-67
2023/12/29 04:05:56;;;;;;;;;;;8.90;100.00;;;;;;6265348;22;19985;-68
2023/12/29 04:08:22;;;;;;;;;;;8.90;100.00;;;;;;6265726;22;19965;-68
2023/12/29 04:10:49;;;;;;;;;;;8.90;100.00;;;;;;6266883;22;19919;-68
2023/12/29 04:13:16;;;;;;;;;;;8.90;100.00;;;;;;6266824;22;19927;-68
2023/12/29 04:15:43;;;;;;;;;;;8.90;100.00;;;;;;6266570;22;19969;-67
2023/12/29 04:18:09;;;;;;;;;;;8.80;100.00;;;;;;6267431;22;19972;-68
2023/12/29 04:20:36;;;;;;;;;;;8.80;100.00;;;;;;6239760;22;20332;-68
2023/12/29 04:23:05;;;;;;;;;;;8.80;100.00;;;;;;6264867;22;19979;-68
2023/12/29 04:25:32;;;;;;;;;;;8.80;100.00;;;;;;6267469;22;20724;-68
2023/12/29 04:27:58;;;;;;;;;;;8.80;100.00;;;;;;6265357;22;19919;-67
2023/12/29 04:30:26;;;;;;;;;;;8.80;100.00;;;;;;6267056;22;19919;-67
2023/12/29 04:32:52;;;;;;;;;;;8.80;100.00;;;;;;6266654;22;19964;-67
2023/12/29 04:35:19;;;;;;;;;;;8.80;100.00;;;;;;6266386;22;20284;-67
2023/12/29 04:37:46;;;;;;;;;;;8.80;100.00;;;;;;6267063;22;19945;-72
2023/12/29 04:40:13;;;;;;;;;;;8.80;100.00;;;;;;6267518;22;19919;-72
2023/12/29 04:42:39;;;;;;;;;;;8.90;100.00;;;;;;6239123;22;20432;-72
2023/12/29 04:45:07;;;;;;;;;;;8.90;100.00;;;;;;6266562;22;19923;-72
2023/12/29 04:47:33;;;;;;;;;;;8.90;100.00;;;;;;6267252;22;20244;-72
2023/12/29 04:50:00;;;;;;;;;;;9.00;100.00;;;;;;6264679;22;20638;-71
2023/12/29 04:52:27;;;;;;;;;;;8.90;100.00;;;;;;6266100;22;19931;-72
2023/12/29 04:54:54;;;;;;;;;;;8.90;100.00;;;;;;6266387;22;19956;-72
2023/12/29 04:57:21;;;;;;;;;;;9.00;100.00;;;;;;6266666;22;20395;-72
2023/12/29 04:59:48;;;;;;;;;;;9.00;100.00;;;;;;6266275;22;19970;-72
2023/12/29 05:02:14;;;;;;;;;;;8.90;100.00;;;;;;6265269;22;19930;-72
2023/12/29 05:04:41;;;;;;;;;;;8.90;100.00;;;;;;6266407;22;19980;-73
2023/12/29 05:07:08;;;;;;;;;;;8.80;100.00;;;;;;6266162;22;19926;-72
2023/12/29 05:09:35;;;;;;;;;;;8.80;100.00;;;;;;6266860;22;20381;-72
2023/12/29 05:12:02;;;;;;;;;;;8.70;100.00;;;;;;6267053;22;19933;-72
2023/12/29 05:14:29;;;;;;;;;;;8.60;100.00;;;;;;6266728;22;19973;-72
2023/12/29 05:16:56;;;;;;;;;;;8.50;100.00;;;;;;6265493;22;20607;-72
2023/12/29 05:19:22;;;;;;;;;;;8.50;100.00;;;;;;6264585;22;19992;-72
2023/12/29 05:21:53;;;;;;;;;;;8.40;100.00;;;;;;6265684;22;20013;-72
2023/12/29 05:24:20;;;;;;;;;;;8.40;100.00;;;;;;6265965;22;19923;-72
2023/12/29 05:26:47;;;;;;;;;;;8.40;100.00;;;;;;6266620;22;19919;-72
2023/12/29 05:29:14;;;;;;;;;;;8.30;100.00;;;;;;6264602;22;19969;-72
2023/12/29 05:31:40;;;;;;;;;;;8.40;100.00;;;;;;6264230;22;19923;-72
2023/12/29 05:34:07;;;;;;;;;;;8.30;100.00;;;;;;6263538;22;19919;-72
2023/12/29 05:36:36;;;;;;;;;;;8.30;100.00;;;;;;6264209;22;19969;-72
2023/12/29 05:39:03;;;;;;;;;;;8.20;100.00;;;;;;6266221;22;19919;-72
2023/12/29 05:41:30;;;;;;;;;;;8.10;100.00;;;;;;6265982;22;19933;-72
2023/12/29 05:44:01;;;;;;;;;;;7.90;100.00;;;;;;6264467;22;20563;-73
2023/12/29 05:46:27;;;;;;;;;;;7.70;100.00;;;;;;6265873;22;20344;-72
2023/12/29 05:48:54;;;;;;;;;;;7.50;100.00;;;;;;6264209;22;20324;-73
2023/12/29 05:51:21;;;;;;;;;;;7.30;100.00;;;;;;6266017;22;19923;-73
2023/12/29 05:53:48;;;;;;;;;;;7.20;100.00;;;;;;6265141;22;19923;-73
2023/12/29 05:56:15;;;;;;;;;;;7.00;100.00;;;;;;6264588;22;19915;-73
2023/12/29 05:58:45;;;;;;;;;;;6.90;100.00;;;;;;6266654;22;20283;-73
2023/12/29 06:01:12;;;;;;;;;;;6.80;100.00;;;;;;6266000;22;19926;-73
2023/12/29 06:03:39;;;;;;;;;;;6.80;100.00;;;;;;6239213;22;19919;-73
2023/12/29 06:06:05;;;;;;;;;;;6.70;100.00;;;;;;6263470;22;19976;-73
2023/12/29 06:08:32;;;;;;;;;;;6.70;100.00;;;;;;6266258;22;19977;-73
2023/12/29 06:10:59;;;;;;;;;;;6.60;100.00;;;;;;6265885;22;19927;-73
2023/12/29 06:13:27;;;;;;;;;;;6.60;100.00;;;;;;6265232;22;20256;-73
2023/12/29 06:15:54;;;;;;;;;;;6.50;100.00;;;;;;6265372;22;19919;-72
2023/12/29 06:18:21;;;;;;;;;;;6.50;100.00;;;;;;6265929;22;20766;-72
2023/12/29 06:20:47;;;;;;;;;;;6.50;100.00;;;;;;6265640;22;19919;-72
2023/12/29 06:23:15;;;;;;;;;;;6.40;100.00;;;;;;6265952;22;19980;-73
2023/12/29 06:25:42;;;;;;;;;;;6.40;100.00;;;;;;6238168;22;20616;-73
2023/12/29 06:28:09;;;;;;;;;;;6.30;100.00;;;;;;6265735;22;19919;-72
2023/12/29 06:30:36;;;;;;;;;;;6.30;100.00;;;;;;6265651;22;19919;-73
2023/12/29 06:33:03;;;;;;;;;;;6.30;100.00;;;;;;6265550;22;19927;-72
2023/12/29 06:35:30;;;;;;;;;;;6.30;100.00;;;;;;6237683;22;19919;-72
2023/12/29 06:37:56;;;;;;;;;;;6.40;100.00;;;;;;6265435;22;19941;-73
2023/12/29 06:40:24;;;;;;;;;;;6.40;100.00;;;;;;6266057;22;19927;-72
2023/12/29 06:42:50;;;;;;;;;;;6.30;100.00;;;;;;6264809;22;19994;-72
2023/12/29 06:45:17;;;;;;;;;;;6.40;100.00;;;;;;6264936;22;19989;-73
2023/12/29 06:47:44;;;;;;;;;;;6.40;100.00;;;;;;6265553;22;19954;-72
2023/12/29 06:50:12;;;;;;;;;;;6.40;100.00;;;;;;6265897;22;20634;-72
2023/12/29 06:52:39;;;;;;;;;;;6.40;100.00;;;;;;6238187;22;19945;-72
2023/12/29 06:55:07;;;;;;;;;;;6.40;100.00;;;;;;6238075;22;19919;-72
2023/12/29 06:57:34;;;;;;;;;;;6.40;100.00;;;;;;6263648;22;20335;-72
2023/12/29 07:00:01;;;;;;;;;;;6.40;100.00;;;;;;6265083;22;19919;-72
2023/12/29 07:02:28;;;;;;;;;;;6.40;100.00;;;;;;6265536;22;19923;-72
2023/12/29 07:04:55;;;;;;;;;;;6.40;100.00;;;;;;6264081;22;19927;-72
2023/12/29 07:07:22;;;;;;;;;;;6.40;100.00;;;;;;6265770;22;20316;-72
2023/12/29 07:09:48;;;;;;;;;;;6.40;100.00;;;;;;6265280;22;19998;-72
2023/12/29 07:12:15;;;;;;;;;;;6.50;100.00;;;;;;6266075;22;19915;-72
2023/12/29 07:14:42;;;;;;;;;;;6.50;100.00;;;;;;6265348;22;20000;-72
2023/12/29 07:17:09;;;;;;;;;;;6.60;100.00;;;;;;6265356;22;19942;-72
2023/12/29 07:19:39;;;;;;;;;;;6.60;100.00;;;;;;6265714;22;19958;-72
2023/12/29 07:22:06;;;;;;;;;;;6.60;100.00;;;;;;6263315;22;19919;-72
2023/12/29 07:24:35;;;;;;;;;;;6.60;100.00;;;;;;6264936;22;19923;-72
2023/12/29 07:27:02;;;;;;;;;;;6.70;100.00;;;;;;6265958;22;19927;-72
2023/12/29 07:29:29;;;;;;;;;;;6.70;100.00;;;;;;6265796;22;20701;-72
2023/12/29 07:31:55;;;;;;;;;;;6.70;100.00;;;;;;6265337;22;19958;-73
2023/12/29 07:34:22;;;;;;;;;;;6.80;100.00;;;;;;6266468;22;20428;-72
2023/12/29 07:36:49;;;;;;;;;;;6.80;100.00;;;;;;6264304;22;19996;-72
2023/12/29 07:39:17;;;;;;;;;;;6.80;100.00;;;;;;6264502;22;19919;-72
2023/12/29 07:41:44;;;;;;;;;;;6.80;100.00;;;;;;6263599;22;19934;-72
2023/12/29 07:44:14;;;;;;;;;;;6.70;100.00;;;;;;6265592;22;19919;-72
2023/12/29 07:46:41;;;;;;;;;;;6.70;100.00;;;;;;6265082;22;20519;-73
2023/12/29 07:49:08;;;;;;;;;;;6.80;100.00;;;;;;6265132;22;19934;-73
2023/12/29 07:51:38;;;;;;;;;;;6.80;100.00;;;;;;6265793;22;19919;-72
2023/12/29 07:54:05;;;;;;;;;;;6.80;100.00;;;;;;6238423;22;19996;-72
2023/12/29 07:56:32;;;;;;;;;;;6.90;100.00;;;;;;6264386;22;19927;-73
2023/12/29 07:58:59;;;;;;;;;;;6.90;100.00;;;;;;6266009;22;19919;-73
2023/12/29 08:01:26;;;;;;;;;;;6.90;100.00;;;;;;6264177;22;20510;-71
2023/12/29 08:03:54;;;;;;;;;;;7.00;100.00;;;;;;6264951;22;19919;-72
2023/12/29 08:06:21;;;;;;;;;;;7.00;100.00;;;;;;6265303;22;19923;-73
2023/12/29 08:08:47;;;;;;;;;;;7.00;100.00;;;;;;6266719;22;19919;-72
2023/12/29 08:11:15;;;;;;;;;;;7.00;100.00;;;;;;6266021;22;19955;-71
2023/12/29 08:13:47;;;;;;;;;;;6.90;100.00;;;;;;6266308;22;19923;-71
2023/12/29 08:16:14;;;;;;;;;;;6.90;100.00;;;;;;6267257;22;19926;-72
2023/12/29 08:18:41;;;;;;;;;;;6.90;100.00;;;;;;6265070;22;20490;-73
2023/12/29 08:21:08;;;;;;;;;;;6.80;100.00;;;;;;6266249;22;20318;-72
2023/12/29 08:23:35;;;;;;;;;;;6.80;100.00;;;;;;6267109;22;19972;-72
2023/12/29 08:26:02;;;;;;;;;;;6.80;100.00;;;;;;6266824;22;19927;-69
2023/12/29 08:28:29;;;;;;;;;;;6.70;100.00;;;;;;6267545;22;19942;-70
2023/12/29 08:30:56;;;;;;;;;;;6.70;100.00;;;;;;6267751;22;19923;-70
2023/12/29 08:33:23;;;;;;;;;;;6.70;100.00;;;;;;6266905;22;20026;-70
2023/12/29 08:35:50;;;;;;;;;;;6.70;100.00;;;;;;6266085;22;19919;-70
2023/12/29 08:38:16;;;;;;;;;;;6.70;100.00;;;;;;6267966;22;19923;-71
2023/12/29 08:40:43;;;;;;;;;;;6.70;100.00;;;;;;6267128;22;20413;-71
2023/12/29 08:43:10;;;;;;;;;;;6.70;100.00;;;;;;6267896;22;20041;-71
2023/12/29 08:45:38;;;;;;;;;;;6.80;100.00;;;;;;6264371;22;19919;-69
2023/12/29 08:48:05;;;;;;;;;;;6.80;100.00;;;;;;6267822;22;20340;-72
2023/12/29 08:50:32;;;;;;;;;;;6.80;100.00;;;;;;6268036;22;19923;-71
2023/12/29 08:52:59;;;;;;;;;;;6.80;100.00;;;;;;6267894;22;19919;-70
2023/12/29 08:55:26;;;;;;;;;;;6.80;100.00;;;;;;6267632;22;19926;-70
2023/12/29 08:57:52;;;;;;;;;;;6.80;100.00;;;;;;6267309;22;20335;-71
2023/12/29 09:00:19;;;;;;;;;;;6.80;100.00;;;;;;6239689;22;20002;-73
2023/12/29 09:02:46;;;;;;;;;;;6.80;100.00;;;;;;6266641;22;19944;-72
2023/12/29 09:05:13;;;;;;;;;;;6.80;100.00;;;;;;6266873;22;19996;-72
2023/12/29 09:07:40;;;;;;;;;;;6.80;100.00;;;;;;6266643;22;19922;-72
2023/12/29 09:10:08;;;;;;;;;;;6.80;100.00;;;;;;6238696;22;20651;-72
2023/12/29 09:12:35;;;;;;;;;;;6.80;100.00;;;;;;6267015;22;19956;-72
2023/12/29 09:15:02;;;;;;;;;;;6.90;100.00;;;;;;6266418;22;19923;-72
2023/12/29 09:17:29;;;;;;;;;;;6.90;100.00;;;;;;6267408;22;19919;-72
2023/12/29 09:19:56;;;;;;;;;;;6.90;100.00;;;;;;6265974;22;19919;-72
2023/12/29 09:22:35;;;;;;;;;;;6.90;100.00;;;;;;6265519;22;19915;-72
2023/12/29 09:25:02;;;;;;;;;;;7.00;100.00;;;;;;6264386;22;20306;-72
2023/12/29 09:27:29;;;;;;;;;;;7.10;100.00;;;;;;6263860;22;19919;-73
2023/12/29 09:29:56;;;;;;;;;;;7.20;100.00;;;;;;6265299;22;20491;-72
2023/12/29 09:32:22;;;;;;;;;;;7.20;100.00;;;;;;6265581;22;20364;-73
2023/12/29 09:34:49;;;;;;;;;;;7.30;100.00;;;;;;6266034;22;20348;-73
2023/12/29 09:37:17;;;;;;;;;;;7.40;100.00;;;;;;6265889;22;19942;-73
2023/12/29 09:39:44;;;;;;;;;;;7.50;100.00;;;;;;6264034;22;20013;-74
2023/12/29 09:42:13;;;;;;;;;;;7.50;100.00;;;;;;6265290;22;19925;-71
2023/12/29 09:44:41;;;;;;;;;;;7.50;100.00;;;;;;6265670;22;19930;-72
2023/12/29 09:47:10;;;;;;;;;;;7.60;100.00;;;;;;6265950;22;19919;-73
2023/12/29 09:49:41;;;;;;;;;;;7.60;100.00;;;;;;6266945;22;19941;-73
2023/12/29 09:52:12;;;;;;;;;;;7.70;100.00;;;;;;6266842;22;19954;-73
2023/12/29 09:54:39;;;;;;;;;;;7.70;100.00;;;;;;6263168;22;19919;-73
2023/12/29 09:57:08;;;;;;;;;;;7.80;100.00;;;;;;6265199;22;20217;-72
2023/12/29 09:59:37;;;;;;;;;;;7.90;100.00;;;;;;6265951;22;19919;-72
2023/12/29 10:02:04;;;;;;;;;;;7.90;100.00;;;;;;6264257;22;19980;-72
2023/12/29 10:04:32;;;;;;;;;;;8.00;100.00;;;;;;6264248;22;19919;-73
2023/12/29 10:07:03;;;;;;;;;;;8.10;100.00;;;;;;6265554;22;19926;-74
2023/12/29 10:09:32;;;;;;;;;;;8.20;100.00;;;;;;6265609;22;19968;-73
2023/12/29 10:11:59;;;;;;;;;;;8.20;100.00;;;;;;6263192;22;19926;-73
2023/12/29 10:14:46;;;;;;;;;;;8.30;100.00;;;;;;6214357;22;19950;-73
2023/12/29 10:17:19;;;;;;;;;;;8.40;100.00;;;;;;6262756;22;19958;-71
2023/12/29 10:20:02;;;;;;;;;;;;;;;;;;;;;
2023/12/29 10:22:29;;;;;;;;;;;8.60;100.00;;;;;;6267002;22;20002;-73
2023/12/29 10:24:56;;;;;;;;;;;8.60;100.00;;;;;;6265254;22;19946;-71
2023/12/29 10:27:22;;;;;;;;;;;8.70;100.00;;;;;;6264617;22;19923;-73
2023/12/29 10:29:49;;;;;;;;;;;8.80;100.00;;;;;;6265084;22;19927;-72
2023/12/29 10:32:16;;;;;;;;;;;8.90;100.00;;;;;;6263225;22;19973;-71
2023/12/29 10:34:43;;;;;;;;;;;9.00;100.00;;;;;;6264702;22;20294;-74
2023/12/29 10:37:14;;;;;;;;;;;9.00;100.00;;;;;;6264884;22;20339;-73
2023/12/29 10:39:54;;;;;;;;;;;8.90;100.00;;;;;;6265091;22;20526;-72
2023/12/29 10:42:21;;;;;;;;;;;8.80;100.00;;;;;;6264045;22;20384;-71
2023/12/29 10:45:03;;;;;;;;;;;8.70;100.00;;;;;;6263125;22;19919;-71
2023/12/29 10:47:30;;;;;;;;;;;8.60;100.00;;;;;;6238421;22;19919;-66
2023/12/29 10:50:01;;;;;;;;;;;8.40;100.00;;;;;;6265512;22;19965;-67
2023/12/29 10:52:28;;;;;;;;;;;8.20;100.00;;;;;;6264584;22;20256;-66
2023/12/29 10:55:11;;;;;;;;;;;8.00;100.00;;;;;;6264751;22;20324;-66
2023/12/29 10:57:38;;;;;;;;;;;7.80;100.00;;;;;;6266196;22;19926;-66
2023/12/29 11:00:07;;;;;;;;;;;7.60;100.00;;;;;;6265701;22;19926;-66
2023/12/29 11:02:35;;;;;;;;;;;7.40;100.00;;;;;;6265142;22;19927;-66
2023/12/29 11:05:08;;;;;;;;;;;7.30;100.00;;;;;;6264019;22;20286;-71
2023/12/29 11:07:40;;;;;;;;;;;7.30;100.00;;;;;;6261985;22;19919;-65
2023/12/29 11:10:08;;;;;;;;;;;7.30;100.00;;;;;;6260537;22;19972;-66
2023/12/29 11:12:36;;;;;;;;;;;7.30;100.00;;;;;;6262938;22;20279;-66
2023/12/29 11:15:04;;;;;;;;;;;7.30;100.00;;;;;;6235463;22;20383;-66
2023/12/29 11:17:33;;;;;;;;;;;7.30;100.00;;;;;;6262422;22;20407;-66
2023/12/29 11:20:02;;;;;;;;;;;7.20;100.00;;;;;;6261417;22;19950;-66
2023/12/29 11:22:45;;;;;;;;;;;7.20;100.00;;;;;;6255468;22;20249;-71
2023/12/29 11:25:12;;;;;;;;;;;7.30;100.00;;;;;;6262605;22;19945;-71
2023/12/29 11:27:40;;;;;;;;;;;7.20;100.00;;;;;;6259844;22;19923;-71
2023/12/29 11:30:07;;;;;;;;;;;7.20;100.00;;;;;;6235439;22;19981;-71
2023/12/29 11:32:45;;;;;;;;;;;7.20;100.00;;;;;;6261580;22;20570;-65
2023/12/29 11:35:32;;;;;;;;;;;7.30;100.00;;;;;;6262696;22;19980;-66
2023/12/29 11:38:20;;;;;;;;;;;7.30;100.00;;;;;;6235164;22;19919;-65
2023/12/29 11:40:47;;;;;;;;;;;7.50;100.00;;;;;;6260124;22;19921;-66
2023/12/29 11:43:16;;;;;;;;;;;7.50;100.00;;;;;;6265582;22;20390;-66
2023/12/29 11:45:44;;;;;;;;;;;7.60;100.00;;;;;;6262981;22;19919;-66
2023/12/29 11:48:12;;;;;;;;;;;7.70;100.00;;;;;;6234699;22;19926;-65
2023/12/29 11:50:40;;;;;;;;;;;7.70;100.00;;;;;;6238508;22;19942;-66
2023/12/29 11:53:10;;;;;;;;;;;7.60;100.00;;;;;;6262207;22;19923;-66
2023/12/29 11:55:38;;;;;;;;;;;7.60;100.00;;;;;;6262867;22;20773;-65
2023/12/29 11:58:25;;;;;;;;;;;7.40;100.00;;;;;;6263059;22;19945;-66
2023/12/29 12:00:52;;;;;;;;;;;7.30;100.00;;;;;;6264356;22;19923;-66
2023/12/29 12:03:20;;;;;;;;;;;7.20;100.00;;;;;;6264446;22;19919;-66
2023/12/29 12:05:48;;;;;;;;;;;7.20;100.00;;;;;;6264173;22;19918;-66
2023/12/29 12:08:27;;;;;;;;;;;7.30;100.00;;;;;;6264246;22;19945;-65
2023/12/29 12:10:54;;;;;;;;;;;7.50;100.00;;;;;;6263424;22;19996;-65
2023/12/29 12:13:39;;;;;;;;;;;7.60;100.00;;;;;;6233652;22;19919;-66
2023/12/29 12:16:06;;;;;;;;;;;7.60;100.00;;;;;;6261586;22;19919;-66
2023/12/29 12:18:33;;;;;;;;;;;7.70;100.00;;;;;;6260087;22;19954;-66
2023/12/29 12:21:00;;;;;;;;;;;7.90;100.00;;;;;;6262035;22;19931;-66
2023/12/29 12:23:30;;;;;;;;;;;8.10;100.00;;;;;;6264168;22;19915;-71
2023/12/29 12:26:22;;;;;;;;;;;8.20;100.00;;;;;;6259904;22;20388;-72
2023/12/29 12:28:52;;;;;;;;;;;8.20;100.00;;;;;;6260320;22;20656;-65
2023/12/29 12:31:18;;;;;;;;;;;8.10;100.00;;;;;;6260935;22;19926;-66
2023/12/29 12:33:55;;;;;;;;;;;7.90;100.00;;;;;;6260455;22;19919;-66
2023/12/29 12:36:26;;;;;;;;;;;7.80;100.00;;;;;;6234713;22;19915;-66
2023/12/29 12:38:54;;;;;;;;;;;7.80;100.00;;;;;;6263391;22;19998;-66
2023/12/29 12:41:24;;;;;;;;;;;8.00;100.00;;;;;;6263221;22;20233;-66
2023/12/29 12:43:54;;;;;;;;;;;8.10;100.00;;;;;;6261619;22;20006;-66
2023/12/29 12:46:23;;;;;;;;;;;7.90;100.00;;;;;;6262654;22;19919;-65
2023/12/29 12:48:50;;;;;;;;;;;7.80;100.00;;;;;;6259585;22;19919;-67
2023/12/29 12:51:19;;;;;;;;;;;7.60;100.00;;;;;;6261419;22;19919;-67
2023/12/29 12:53:47;;;;;;;;;;;7.60;100.00;;;;;;6237097;22;19919;-66
2023/12/29 12:56:14;;;;;;;;;;;7.60;100.00;;;;;;6266077;22;19919;-67
2023/12/29 12:58:42;;;;;;;;;;;7.60;100.00;;;;;;6264781;22;20513;-67
2023/12/29 13:01:09;;;;;;;;;;;7.60;100.00;;;;;;6266170;22;19948;-67
2023/12/29 13:03:38;;;;;;;;;;;7.60;100.00;;;;;;6266858;22;20618;-67
2023/12/29 13:06:05;;;;;;;;;;;7.50;100.00;;;;;;6266269;22;19922;-67
2023/12/29 13:08:32;;;;;;;;;;;7.50;100.00;;;;;;6264991;22;19927;-66
2023/12/29 13:11:06;;;;;;;;;;;7.50;100.00;;;;;;6260403;22;19919;-67
2023/12/29 13:13:39;;;;;;;;;;;7.50;100.00;;;;;;6261767;22;20449;-66
2023/12/29 13:16:06;;;;;;;;;;;7.50;100.00;;;;;;6261875;22;19926;-67
2023/12/29 13:18:34;;;;;;;;;;;7.40;100.00;;;;;;6262174;22;19929;-66
2023/12/29 13:21:02;;;;;;;;;;;7.50;100.00;;;;;;6262939;22;19923;-67
2023/12/29 13:23:29;;;;;;;;;;;7.50;100.00;;;;;;6264925;22;19926;-72
2023/12/29 13:26:01;;;;;;;;;;;7.50;100.00;;;;;;6265659;22;19927;-72
2023/12/29 13:28:29;;;;;;;;;;;7.50;100.00;;;;;;6265000;22;19925;-72
2023/12/29 13:30:57;;;;;;;;;;;7.60;100.00;;;;;;6264326;22;19922;-71
2023/12/29 13:33:31;;;;;;;;;;;7.60;100.00;;;;;;6264479;22;19925;-72
2023/12/29 13:36:08;;;;;;;;;;;7.60;100.00;;;;;;6264408;22;20542;-67
2023/12/29 13:38:38;;;;;;;;;;;7.50;100.00;;;;;;6265917;22;19919;-67
2023/12/29 13:41:09;;;;;;;;;;;7.40;100.00;;;;;;6264277;22;20342;-67
2023/12/29 13:43:42;;;;;;;;;;;7.40;100.00;;;;;;6264621;22;19968;-67
2023/12/29 13:46:13;;;;;;;;;;;7.40;100.00;;;;;;6263343;22;19919;-67
2023/12/29 13:48:41;;;;;;;;;;;7.40;100.00;;;;;;6265670;22;19934;-67
2023/12/29 13:51:08;;;;;;;;;;;7.40;100.00;;;;;;6266556;22;19919;-67
2023/12/29 13:53:35;;;;;;;;;;;7.40;100.00;;;;;;6266784;22;19919;-66
2023/12/29 13:56:08;;;;;;;;;;;7.40;100.00;;;;;;6266398;22;19919;-66
2023/12/29 13:58:35;;;;;;;;;;;7.40;100.00;;;;;;6239336;22;19941;-67
2023/12/29 14:01:04;;;;;;;;;;;7.30;100.00;;;;;;6266417;22;20402;-67
2023/12/29 14:03:34;;;;;;;;;;;7.30;100.00;;;;;;6239141;22;19993;-65
2023/12/29 14:06:08;;;;;;;;;;;7.30;100.00;;;;;;6266331;22;20263;-65
2023/12/29 14:08:44;;;;;;;;;;;7.30;100.00;;;;;;6239403;22;19972;-65
2023/12/29 14:11:11;;;;;;;;;;;7.30;100.00;;;;;;6266824;22;19929;-65
2023/12/29 14:13:42;;;;;;;;;;;7.30;100.00;;;;;;6266444;22;20378;-65
2023/12/29 14:16:09;;;;;;;;;;;7.30;100.00;;;;;;6266123;22;20317;-65
2023/12/29 14:18:46;;;;;;;;;;;7.30;100.00;;;;;;6265894;22;19919;-65
2023/12/29 14:21:28;;;;;;;;;;;7.30;100.00;;;;;;6265927;22;20005;-65
2023/12/29 14:23:58;;;;;;;;;;;7.30;100.00;;;;;;6266209;22;20244;-65
2023/12/29 14:26:25;;;;;;;;;;;7.20;100.00;;;;;;6265837;22;19922;-66